Avawam, Kentucky
Current Conditions -  °F | °C
As of 1:53 PM on Tuesday 27 Jan 2015 (Local Time) from KJKL Reporting Station
Scattered Clouds Scattered Clouds  
Wind Chill: 29°   Ceiling: Unl
Heat Index: 33°   Visibility: 10mi
Dew Point: 13°   Wind: 5mph
Humidity: 43%   Direction: NA
Pressure: 29.98"   Gusts: NA
Location:  37.22°N, 83.27°W
Report Text: KJKL 271853Z AUTO VRB04KT 10SM SCT120 01/M11 A2998 RMK AO2 SLP163 T00061106
Loading
Personal Weather Stations






























Interactive Weather Map New forecast layout! Learn more

10-Day Weather Forecast

Advertisements
Track Severe Weather on mobile